createdAt,value
2016-02-27T00:00:37.953Z,0
2016-02-27T00:01:38.001Z,0
2016-02-27T00:02:37.879Z,0
2016-02-27T00:03:38.023Z,0
2016-02-27T00:04:37.854Z,0
2016-02-27T00:05:37.871Z,0
2016-02-27T00:06:37.796Z,0
2016-02-27T00:07:37.768Z,0
2016-02-27T00:08:37.755Z,0
2016-02-27T00:09:37.710Z,0
2016-02-27T00:10:37.682Z,0
2016-02-27T00:11:37.637Z,0
2016-02-27T00:12:37.703Z,0
2016-02-27T00:13:37.596Z,0
2016-02-27T00:14:37.896Z,0
2016-02-27T00:15:37.554Z,0
2016-02-27T00:16:37.542Z,0
2016-02-27T00:17:37.529Z,0
2016-02-27T00:18:37.517Z,0
2016-02-27T00:19:37.581Z,0
2016-02-27T00:20:37.412Z,0
2016-02-27T00:21:37.400Z,0
2016-02-27T00:22:37.402Z,0
2016-02-27T00:23:37.373Z,0
2016-02-27T00:24:37.360Z,0
2016-02-27T00:25:37.300Z,0
2016-02-27T00:26:37.319Z,0
2016-02-27T00:27:37.258Z,0
2016-02-27T00:28:37.230Z,0
2016-02-27T00:29:37.233Z,0
2016-02-27T00:30:37.485Z,0
2016-02-27T00:31:37.208Z,0
2016-02-27T00:32:37.132Z,0
2016-02-27T00:33:37.119Z,0
2016-02-27T00:34:37.106Z,0
2016-02-27T00:35:37.078Z,0
2016-02-27T00:36:37.080Z,0
2016-02-27T00:37:36.989Z,0
2016-02-27T00:38:36.991Z,0
2016-02-27T00:39:36.963Z,0
2016-02-27T00:40:36.919Z,0
2016-02-27T00:41:36.749Z,0
2016-02-27T00:42:36.877Z,0
2016-02-27T00:43:36.896Z,0
2016-02-27T00:44:36.851Z,0
2016-02-27T00:45:36.840Z,0
2016-02-27T00:46:36.795Z,0
2016-02-27T00:47:36.750Z,0
2016-02-27T00:48:36.738Z,0
2016-02-27T00:49:36.693Z,0
2016-02-27T00:50:36.680Z,0
2016-02-27T00:51:36.651Z,0
2016-02-27T00:52:36.639Z,0
2016-02-27T00:53:36.611Z,0
2016-02-27T00:54:36.566Z,0
2016-02-27T00:55:36.553Z,0
2016-02-27T00:56:36.540Z,0
2016-02-27T00:57:36.496Z,0
2016-02-27T00:58:36.499Z,0
2016-02-27T00:59:36.486Z,0
2016-02-27T01:00:36.472Z,0
2016-02-27T01:01:36.413Z,0
2016-02-27T01:02:36.463Z,0
2016-02-27T01:03:36.372Z,0
2016-02-27T01:04:36.374Z,0
2016-02-27T01:05:36.361Z,0
2016-02-27T01:06:36.286Z,0
2016-02-27T01:07:36.242Z,0
2016-02-27T01:08:36.244Z,0
2016-02-27T01:09:36.216Z,0
2016-02-27T01:10:36.188Z,0
2016-02-27T01:11:36.190Z,0
2016-02-27T01:12:36.099Z,0
2016-02-27T01:13:36.101Z,0
2016-02-27T01:14:36.120Z,0
2016-02-27T01:15:36.042Z,0
2016-02-27T01:16:36.188Z,0
2016-02-27T01:17:36.016Z,0
2016-02-27T01:18:35.971Z,0
2016-02-27T01:19:35.942Z,0
2016-02-27T01:20:35.915Z,0
2016-02-27T01:21:35.887Z,0
2016-02-27T01:22:35.920Z,0
2016-02-27T01:23:35.954Z,0
2016-02-27T01:24:35.832Z,0
2016-02-27T01:25:35.834Z,0
2016-02-27T01:26:35.790Z,0
2016-02-27T01:27:36.027Z,0
2016-02-27T01:28:35.780Z,0
2016-02-27T01:29:35.688Z,0
2016-02-27T01:30:35.675Z,0
2016-02-27T01:31:35.648Z,0
2016-02-27T01:32:35.900Z,0
2016-02-27T01:33:35.590Z,0
2016-02-27T01:34:35.562Z,0
2016-02-27T01:35:35.580Z,0
2016-02-27T01:36:35.536Z,0
2016-02-27T01:37:35.507Z,0
2016-02-27T01:38:35.463Z,0
2016-02-27T01:39:35.450Z,0
2016-02-27T01:40:35.405Z,0
2016-02-27T01:41:35.424Z,0
2016-02-27T01:42:35.380Z,0
2016-02-27T01:43:35.351Z,0
2016-02-27T01:44:35.323Z,0
2016-02-27T01:45:35.451Z,0
2016-02-27T01:46:35.266Z,0
2016-02-27T01:47:35.253Z,0
2016-02-27T01:48:35.224Z,0
2016-02-27T01:49:35.212Z,0
2016-02-27T01:50:35.245Z,0
2016-02-27T01:51:35.170Z,0
2016-02-27T01:52:35.109Z,0
2016-02-27T01:53:35.112Z,0
2016-02-27T01:54:35.068Z,0
2016-02-27T01:55:35.039Z,0
2016-02-27T01:56:35.012Z,0
2016-02-27T01:57:34.983Z,0
2016-02-27T01:58:34.970Z,0
2016-02-27T01:59:34.942Z,0
2016-02-27T02:00:34.913Z,0
2016-02-27T02:01:34.916Z,0
2016-02-27T02:02:35.074Z,0
2016-02-27T02:03:34.827Z,0
2016-02-27T02:04:34.814Z,0
2016-02-27T02:05:34.802Z,0
2016-02-27T02:06:34.773Z,0
2016-02-27T02:07:34.775Z,0
2016-02-27T02:08:34.716Z,0
2016-02-27T02:09:34.702Z,0
2016-02-27T02:10:34.658Z,0
2016-02-27T02:11:34.646Z,0
2016-02-27T02:12:34.616Z,0
2016-02-27T02:13:34.869Z,0
2016-02-27T02:14:34.543Z,0
2016-02-27T02:15:34.532Z,0
2016-02-27T02:16:34.503Z,0
2016-02-27T02:17:34.474Z,0
2016-02-27T02:18:34.633Z,0
2016-02-27T02:19:34.448Z,0
2016-02-27T02:20:34.420Z,0
2016-02-27T02:21:34.422Z,0
2016-02-27T02:22:34.362Z,0
2016-02-27T02:23:34.351Z,0
2016-02-27T02:24:34.306Z,0
2016-02-27T02:25:34.309Z,0
2016-02-27T02:26:34.279Z,0
2016-02-27T02:27:34.236Z,0
2016-02-27T02:28:34.223Z,0
2016-02-27T02:29:34.194Z,0
2016-02-27T02:30:34.165Z,0
2016-02-27T02:31:34.122Z,0
2016-02-27T02:32:34.108Z,0
2016-02-27T02:33:34.064Z,0
2016-02-27T02:34:34.051Z,0
2016-02-27T02:35:34.023Z,0
2016-02-27T02:36:34.010Z,0
2016-02-27T02:37:33.981Z,0
2016-02-27T02:38:33.952Z,0
2016-02-27T02:39:33.924Z,0
2016-02-27T02:40:33.895Z,0
2016-02-27T02:41:33.898Z,0
2016-02-27T02:42:33.855Z,0
2016-02-27T02:43:33.841Z,0
2016-02-27T02:44:33.797Z,0
2016-02-27T02:45:33.799Z,0
2016-02-27T02:46:33.802Z,0
2016-02-27T02:47:33.726Z,0
2016-02-27T02:48:33.729Z,0
2016-02-27T02:49:33.685Z,0
2016-02-27T02:50:33.657Z,0
2016-02-27T02:51:33.644Z,0
2016-02-27T02:52:33.615Z,0
2016-02-27T02:53:33.618Z,0
2016-02-27T02:54:33.559Z,0
2016-02-27T02:55:33.529Z,0
2016-02-27T02:56:33.517Z,0
2016-02-27T02:57:33.472Z,0
2016-02-27T02:58:33.459Z,0
2016-02-27T02:59:33.431Z,0
2016-02-27T03:00:33.417Z,0
2016-02-27T03:01:33.390Z,0
2016-02-27T03:02:33.361Z,0
2016-02-27T03:03:33.317Z,0
2016-02-27T03:04:33.475Z,0
2016-02-27T03:05:33.494Z,0
2016-02-27T03:06:33.247Z,0
2016-02-27T03:07:33.218Z,0
2016-02-27T03:08:33.221Z,0
2016-02-27T03:09:33.177Z,0
2016-02-27T03:10:33.180Z,0
2016-02-27T03:11:33.119Z,0
2016-02-27T03:12:33.122Z,0
2016-02-27T03:13:33.094Z,0
2016-02-27T03:14:33.049Z,0
2016-02-27T03:15:33.286Z,0
2016-02-27T03:16:33.007Z,0
2016-02-27T03:17:32.980Z,0
2016-02-27T03:18:32.966Z,0
2016-02-27T03:19:32.954Z,0
2016-02-27T03:20:33.112Z,0
2016-02-27T03:21:32.865Z,0
2016-02-27T03:22:32.852Z,0
2016-02-27T03:23:32.823Z,0
2016-02-27T03:24:32.779Z,0
2016-02-27T03:25:32.782Z,0
2016-02-27T03:26:32.738Z,0
2016-02-27T03:27:32.725Z,0
2016-02-27T03:28:32.696Z,0
2016-02-27T03:29:32.668Z,0
2016-02-27T03:30:32.639Z,0
2016-02-27T03:31:32.470Z,0
2016-02-27T03:32:32.582Z,0
2016-02-27T03:33:32.553Z,0
2016-02-27T03:34:32.541Z,0
2016-02-27T03:35:32.527Z,0
2016-02-27T03:36:32.515Z,0
2016-02-27T03:37:32.470Z,0
2016-02-27T03:38:32.473Z,0
2016-02-27T03:39:32.414Z,0
2016-02-27T03:40:32.400Z,0
2016-02-27T03:41:32.388Z,0
2016-02-27T03:42:32.405Z,0
2016-02-27T03:43:32.315Z,0
2016-02-27T03:44:32.349Z,0
2016-02-27T03:45:32.274Z,0
2016-02-27T03:46:32.245Z,0
2016-02-27T03:47:32.216Z,0
2016-02-27T03:48:32.219Z,0
2016-02-27T03:49:32.003Z,0
2016-02-27T03:50:32.146Z,0
2016-02-27T03:51:32.101Z,0
2016-02-27T03:52:32.090Z,0
2016-02-27T03:53:32.045Z,0
2016-02-27T03:54:32.032Z,0
2016-02-27T03:55:32.004Z,0
2016-02-27T03:56:31.990Z,0
2016-02-27T03:57:31.962Z,0
2016-02-27T03:58:31.933Z,0
2016-02-27T03:59:31.904Z,0
2016-02-27T04:00:31.907Z,0
2016-02-27T04:01:32.114Z,0
2016-02-27T04:02:31.835Z,0
2016-02-27T04:03:31.869Z,0
2016-02-27T04:04:31.793Z,0
2016-02-27T04:05:31.780Z,0
2016-02-27T04:06:31.877Z,0
2016-02-27T04:07:31.738Z,0
2016-02-27T04:08:31.695Z,0
2016-02-27T04:09:31.651Z,0
2016-02-27T04:10:31.622Z,0
2016-02-27T04:11:31.625Z,0
2016-02-27T04:12:31.581Z,0
2016-02-27T04:13:31.599Z,0
2016-02-27T04:14:31.586Z,0
2016-02-27T04:15:31.494Z,0
2016-02-27T04:16:31.325Z,0
2016-02-27T04:17:31.468Z,0
2016-02-27T04:18:31.455Z,0
2016-02-27T04:19:31.444Z,0
2016-02-27T04:20:31.446Z,0
2016-02-27T04:21:31.371Z,0
2016-02-27T04:22:31.341Z,0
2016-02-27T04:23:31.313Z,0
2016-02-27T04:24:31.268Z,0
2016-02-27T04:25:31.288Z,0
2016-02-27T04:26:31.212Z,0
2016-02-27T04:27:31.215Z,0
2016-02-27T04:28:31.187Z,0
2016-02-27T04:29:31.189Z,0
2016-02-27T04:30:31.148Z,0
2016-02-27T04:31:31.076Z,0
2016-02-27T04:32:31.049Z,0
2016-02-27T04:33:30.992Z,0
2016-02-27T04:34:30.966Z,0
2016-02-27T04:35:30.932Z,0
2016-02-27T04:36:30.898Z,0
2016-02-27T04:37:30.865Z,0
2016-02-27T04:38:30.847Z,0
2016-02-27T04:39:30.797Z,0
2016-02-27T04:40:30.783Z,0
2016-02-27T04:41:30.753Z,0
2016-02-27T04:42:30.738Z,0
2016-02-27T04:43:30.709Z,0
2016-02-27T04:44:30.678Z,0
2016-02-27T04:45:30.649Z,0
2016-02-27T04:46:30.635Z,0
2016-02-27T04:47:30.605Z,0
2016-02-27T04:48:30.560Z,0
2016-02-27T04:49:30.531Z,0
2016-02-27T04:50:30.533Z,0
2016-02-27T04:51:30.505Z,0
2016-02-27T04:52:30.663Z,0
2016-02-27T04:53:30.463Z,0
2016-02-27T04:54:30.434Z,0
2016-02-27T04:55:30.389Z,0
2016-02-27T04:56:30.361Z,0
2016-02-27T04:57:30.348Z,0
2016-02-27T04:58:30.506Z,0
2016-02-27T04:59:30.291Z,0
2016-02-27T05:00:30.293Z,0
2016-02-27T05:01:30.264Z,0
2016-02-27T05:02:30.221Z,0
2016-02-27T05:03:30.473Z,0
2016-02-27T05:04:30.164Z,0
2016-02-27T05:05:29.994Z,0
2016-02-27T05:06:30.122Z,0
2016-02-27T05:07:30.108Z,0
2016-02-27T05:08:30.252Z,0
2016-02-27T05:09:30.068Z,0
2016-02-27T05:10:29.367Z,0
2016-02-27T05:11:29.995Z,0
2016-02-27T05:12:29.997Z,0
2016-02-27T05:13:29.954Z,0
2016-02-27T05:14:29.924Z,0
2016-02-27T05:15:29.927Z,0
2016-02-27T05:16:29.868Z,0
2016-02-27T05:17:29.901Z,0
2016-02-27T05:18:29.827Z,0
2016-02-27T05:19:29.782Z,0
2016-02-27T05:20:29.051Z,0
2016-02-27T05:21:29.740Z,0
2016-02-27T05:22:29.743Z,0
2016-02-27T05:23:29.683Z,0
2016-02-27T05:24:29.529Z,0
2016-02-27T05:25:29.642Z,0
2016-02-27T05:26:29.629Z,0
2016-02-27T05:27:29.585Z,0
2016-02-27T05:28:29.540Z,0
2016-02-27T05:29:29.528Z,0
2016-02-27T05:30:29.515Z,0
2016-02-27T05:31:29.486Z,0
2016-02-27T05:32:29.364Z,0
2016-02-27T05:33:29.444Z,0
2016-02-27T05:34:29.432Z,0
2016-02-27T05:35:29.388Z,0
2016-02-27T05:36:29.344Z,0
2016-02-27T05:37:29.533Z,0
2016-02-27T05:38:29.317Z,0
2016-02-27T05:39:29.273Z,0
2016-02-27T05:40:29.276Z,0
2016-02-27T05:41:29.247Z,0
2016-02-27T05:42:29.203Z,0
2016-02-27T05:43:29.175Z,0
2016-02-27T05:44:29.177Z,0
2016-02-27T05:45:29.321Z,0
2016-02-27T05:46:29.167Z,0
2016-02-27T05:47:29.091Z,0
2016-02-27T05:48:29.048Z,0
2016-02-27T05:49:28.878Z,0
2016-02-27T05:50:29.116Z,0
2016-02-27T05:51:28.993Z,0
2016-02-27T05:52:28.840Z,0
2016-02-27T05:53:28.936Z,0
2016-02-27T05:54:29.048Z,0
2016-02-27T05:55:28.879Z,0
2016-02-27T05:56:28.850Z,0
2016-02-27T05:57:28.822Z,0
2016-02-27T05:58:28.840Z,0
2016-02-27T05:59:28.906Z,0
2016-02-27T06:00:28.736Z,0
2016-02-27T06:01:28.708Z,0
2016-02-27T06:02:28.726Z,0
2016-02-27T06:03:28.713Z,0
2016-02-27T06:04:28.653Z,0
2016-02-27T06:05:28.500Z,0
2016-02-27T06:06:28.596Z,0
2016-02-27T06:07:28.567Z,0
2016-02-27T06:08:28.554Z,0
2016-02-27T06:09:28.542Z,0
2016-02-27T06:10:28.732Z,0
2016-02-27T06:11:28.485Z,0
2016-02-27T06:12:28.455Z,0
2016-02-27T06:13:28.443Z,0
2016-02-27T06:14:28.414Z,0
2016-02-27T06:15:28.385Z,0
2016-02-27T06:16:28.341Z,0
2016-02-27T06:17:28.329Z,0
2016-02-27T06:18:28.316Z,0
2016-02-27T06:19:28.334Z,0
2016-02-27T06:20:28.337Z,0
2016-02-27T06:21:28.230Z,0
2016-02-27T06:22:28.217Z,0
2016-02-27T06:23:28.173Z,0
2016-02-27T06:24:28.175Z,0
2016-02-27T06:25:28.148Z,0
2016-02-27T06:26:28.103Z,0
2016-02-27T06:27:28.153Z,0
2016-02-27T06:28:28.062Z,0
2016-02-27T06:29:28.033Z,0
2016-02-27T06:30:28.004Z,0
2016-02-27T06:31:27.944Z,0
2016-02-27T06:32:27.947Z,0
2016-02-27T06:33:27.919Z,0
2016-02-27T06:34:27.890Z,0
2016-02-27T06:35:27.877Z,0
2016-02-27T06:36:27.833Z,0
2016-02-27T06:37:27.820Z,0
2016-02-27T06:38:27.775Z,0
2016-02-27T06:39:27.763Z,0
2016-02-27T06:40:27.780Z,0
2016-02-27T06:41:27.737Z,0
2016-02-27T06:42:27.693Z,0
2016-02-27T06:43:27.695Z,0
2016-02-27T06:44:27.666Z,0
2016-02-27T06:45:27.607Z,0
2016-02-27T06:46:27.594Z,0
2016-02-27T06:47:27.549Z,0
2016-02-27T06:48:27.552Z,0
2016-02-27T06:49:27.571Z,0
2016-02-27T06:50:27.480Z,0
2016-02-27T06:51:27.639Z,0
2016-02-27T06:52:27.423Z,0
2016-02-27T06:53:27.410Z,0
2016-02-27T06:54:27.382Z,0
2016-02-27T06:55:27.353Z,0
2016-02-27T06:56:27.401Z,0
2016-02-27T06:57:27.295Z,0
2016-02-27T06:58:27.298Z,0
2016-02-27T06:59:27.284Z,0
2016-02-27T07:00:27.242Z,0
2016-02-27T07:01:27.212Z,5
2016-02-27T07:02:27.168Z,5
2016-02-27T07:03:27.156Z,5
2016-02-27T07:04:27.158Z,5
2016-02-27T07:05:26.973Z,5
2016-02-27T07:06:27.116Z,5
2016-02-27T07:07:27.338Z,5
2016-02-27T07:08:27.092Z,5
2016-02-27T07:09:27.016Z,5
2016-02-27T07:10:26.987Z,5
2016-02-27T07:11:26.958Z,5
2016-02-27T07:12:26.930Z,5
2016-02-27T07:13:26.901Z,5
2016-02-27T07:14:26.888Z,5
2016-02-27T07:15:26.844Z,5
2016-02-27T07:16:26.831Z,5
2016-02-27T07:17:26.788Z,5
2016-02-27T07:18:26.790Z,5
2016-02-27T07:19:26.746Z,5
2016-02-27T07:20:26.732Z,5
2016-02-27T07:21:26.719Z,5
2016-02-27T07:22:26.675Z,5
2016-02-27T07:23:26.662Z,5
2016-02-27T07:24:26.635Z,5
2016-02-27T07:25:26.590Z,5
2016-02-27T07:26:26.577Z,5
2016-02-27T07:27:26.548Z,5
2016-02-27T07:28:26.535Z,5
2016-02-27T07:29:26.506Z,5
2016-02-27T07:30:26.493Z,5
2016-02-27T07:31:26.465Z,5
2016-02-27T07:32:26.437Z,5
2016-02-27T07:33:26.440Z,5
2016-02-27T07:34:26.395Z,5
2016-02-27T07:35:26.382Z,5
2016-02-27T07:36:26.322Z,5
2016-02-27T07:37:26.309Z,5
2016-02-27T07:38:26.296Z,5
2016-02-27T07:39:26.252Z,5
2016-02-27T07:40:26.256Z,5
2016-02-27T07:41:26.211Z,5
2016-02-27T07:42:26.292Z,5
2016-02-27T07:43:26.138Z,5
2016-02-27T07:44:26.110Z,5
2016-02-27T07:45:26.174Z,5
2016-02-27T07:46:26.099Z,5
2016-02-27T07:47:26.055Z,5
2016-02-27T07:48:26.011Z,5
2016-02-27T07:49:25.999Z,5
2016-02-27T07:50:26.016Z,5
2016-02-27T07:51:25.972Z,5
2016-02-27T07:52:25.928Z,5
2016-02-27T07:53:26.102Z,5
2016-02-27T07:54:25.855Z,5
2016-02-27T07:55:25.842Z,5
2016-02-27T07:56:25.813Z,5
2016-02-27T07:57:25.785Z,5
2016-02-27T07:58:25.053Z,10
2016-02-27T07:59:25.775Z,10
2016-02-27T08:00:25.715Z,10
2016-02-27T08:01:25.702Z,10
2016-02-27T08:02:25.501Z,10
2016-02-27T08:03:25.661Z,10
2016-02-27T08:04:25.882Z,10
2016-02-27T08:05:25.588Z,10
2016-02-27T08:06:25.559Z,10
2016-02-27T08:07:25.547Z,10
2016-02-27T08:08:25.518Z,10
2016-02-27T08:09:25.489Z,10
2016-02-27T08:10:25.476Z,10
2016-02-27T08:11:25.432Z,10
2016-02-27T08:12:25.403Z,10
2016-02-27T08:13:25.391Z,10
2016-02-27T08:14:25.377Z,10
2016-02-27T08:15:25.349Z,10
2016-02-27T08:16:25.305Z,10
2016-02-27T08:17:25.277Z,10
2016-02-27T08:18:25.247Z,10
2016-02-27T08:19:25.235Z,10
2016-02-27T08:20:25.222Z,10
2016-02-27T08:21:25.194Z,10
2016-02-27T08:22:25.009Z,10
2016-02-27T08:23:25.152Z,10
2016-02-27T08:24:25.092Z,10
2016-02-27T08:25:25.080Z,10
2016-02-27T08:26:25.051Z,10
2016-02-27T08:27:24.897Z,10
2016-02-27T08:28:25.009Z,10
2016-02-27T08:29:24.996Z,10
2016-02-27T08:30:24.983Z,10
2016-02-27T08:31:24.955Z,10
2016-02-27T08:32:24.910Z,10
2016-02-27T08:33:24.898Z,10
2016-02-27T08:34:24.900Z,10
2016-02-27T08:35:24.840Z,10
2016-02-27T08:36:24.796Z,10
2016-02-27T08:37:24.768Z,10
2016-02-27T08:38:24.740Z,10
2016-02-27T08:39:24.914Z,10
2016-02-27T08:40:24.698Z,10
2016-02-27T08:41:24.685Z,10
2016-02-27T08:42:24.656Z,10
2016-02-27T08:43:24.644Z,10
2016-02-27T08:44:24.615Z,10
2016-02-27T08:45:24.586Z,10
2016-02-27T08:46:24.573Z,10
2016-02-27T08:47:24.529Z,10
2016-02-27T08:48:24.547Z,10
2016-02-27T08:49:24.471Z,10
2016-02-27T08:50:24.444Z,10
2016-02-27T08:51:24.446Z,10
2016-02-27T08:52:24.402Z,10
2016-02-27T08:53:24.374Z,10
2016-02-27T08:54:24.376Z,10
2016-02-27T08:55:24.566Z,10
2016-02-27T08:56:24.319Z,10
2016-02-27T08:57:24.274Z,10
2016-02-27T08:58:24.309Z,10
2016-02-27T08:59:24.232Z,10
2016-02-27T09:00:24.267Z,10
2016-02-27T09:01:24.160Z,10
2016-02-27T09:02:24.132Z,10
2016-02-27T09:03:24.119Z,10
2016-02-27T09:04:24.090Z,10
2016-02-27T09:05:24.062Z,10
2016-02-27T09:06:24.033Z,10
2016-02-27T09:07:24.051Z,10
2016-02-27T09:08:23.851Z,10
2016-02-27T09:09:23.978Z,10
2016-02-27T09:10:23.934Z,10
2016-02-27T09:11:23.922Z,10
2016-02-27T09:12:23.956Z,15
2016-02-27T09:13:23.850Z,15
2016-02-27T09:14:23.852Z,15
2016-02-27T09:15:23.823Z,15
2016-02-27T09:16:23.811Z,15
2016-02-27T09:17:23.766Z,15
2016-02-27T09:18:23.019Z,15
2016-02-27T09:19:23.771Z,15
2016-02-27T09:20:23.758Z,15
2016-02-27T09:21:23.699Z,15
2016-02-27T09:22:23.638Z,15
2016-02-27T09:23:23.454Z,15
2016-02-27T09:24:23.597Z,15
2016-02-27T09:25:23.552Z,15
2016-02-27T09:26:23.525Z,15
2016-02-27T09:27:23.512Z,15
2016-02-27T09:28:23.482Z,15
2016-02-27T09:29:23.439Z,15
2016-02-27T09:30:23.426Z,15
2016-02-27T09:31:23.491Z,15
2016-02-27T09:32:23.384Z,15
2016-02-27T09:33:23.449Z,15
2016-02-27T09:34:23.342Z,15
2016-02-27T09:35:23.298Z,15
2016-02-27T09:36:23.286Z,15
2016-02-27T09:37:23.289Z,15
2016-02-27T09:38:23.276Z,15
2016-02-27T09:39:23.215Z,15
2016-02-27T09:40:23.187Z,15
2016-02-27T09:41:23.456Z,15
2016-02-27T09:42:23.161Z,15
2016-02-27T09:43:23.101Z,15
2016-02-27T09:44:23.104Z,15
2016-02-27T09:45:23.061Z,15
2016-02-27T09:46:23.109Z,15
2016-02-27T09:47:23.003Z,15
2016-02-27T09:48:23.036Z,15
2016-02-27T09:49:22.992Z,15
2016-02-27T09:50:22.636Z,15
2016-02-27T09:51:22.919Z,15
2016-02-27T09:52:22.875Z,15
2016-02-27T09:53:22.862Z,15
2016-02-27T09:54:22.835Z,15
2016-02-27T09:55:22.822Z,15
2016-02-27T09:56:22.777Z,15
2016-02-27T09:57:22.999Z,15
2016-02-27T09:58:22.721Z,15
2016-02-27T09:59:22.707Z,15
2016-02-27T10:00:22.694Z,15
2016-02-27T10:01:22.665Z,15
2016-02-27T10:02:22.621Z,15
2016-02-27T10:03:22.702Z,15
2016-02-27T10:04:22.579Z,15
2016-02-27T10:05:22.396Z,15
2016-02-27T10:06:22.538Z,15
2016-02-27T10:07:22.494Z,15
2016-02-27T10:08:22.482Z,15
2016-02-27T10:09:22.312Z,15
2016-02-27T10:10:22.424Z,15
2016-02-27T10:11:22.411Z,15
2016-02-27T10:12:22.383Z,15
2016-02-27T10:13:22.370Z,15
2016-02-27T10:14:22.325Z,15
2016-02-27T10:15:22.328Z,15
2016-02-27T10:16:22.284Z,20
2016-02-27T10:17:22.272Z,20
2016-02-27T10:18:22.274Z,20
2016-02-27T10:19:22.214Z,20
2016-02-27T10:20:22.186Z,20
2016-02-27T10:21:22.141Z,20
2016-02-27T10:22:22.160Z,20
2016-02-27T10:23:22.115Z,20
2016-02-27T10:24:22.086Z,20
2016-02-27T10:25:22.058Z,20
2016-02-27T10:26:22.030Z,20
2016-02-27T10:27:22.032Z,20
2016-02-27T10:28:21.972Z,20
2016-02-27T10:29:21.975Z,20
2016-02-27T10:30:21.931Z,20
2016-02-27T10:31:21.902Z,20
2016-02-27T10:32:21.983Z,20
2016-02-27T10:33:21.860Z,20
2016-02-27T10:34:21.832Z,20
2016-02-27T10:35:21.820Z,20
2016-02-27T10:36:21.775Z,20
2016-02-27T10:37:21.793Z,20
2016-02-27T10:38:21.781Z,20
2016-02-27T10:39:21.705Z,20
2016-02-27T10:40:21.708Z,20
2016-02-27T10:41:21.523Z,20
2016-02-27T10:42:21.823Z,20
2016-02-27T10:43:21.887Z,20
2016-02-27T10:44:21.578Z,20
2016-02-27T10:45:21.565Z,20
2016-02-27T10:46:21.536Z,20
2016-02-27T10:47:21.523Z,20
2016-02-27T10:48:21.651Z,25
2016-02-27T10:49:21.483Z,25
2016-02-27T10:50:21.453Z,25
2016-02-27T10:51:21.409Z,25
2016-02-27T10:52:21.224Z,25
2016-02-27T10:53:21.414Z,25
2016-02-27T10:54:21.324Z,25
2016-02-27T10:55:21.311Z,25
2016-02-27T10:56:21.314Z,25
2016-02-27T10:57:21.269Z,25
2016-02-27T10:58:21.241Z,25
2016-02-27T10:59:21.213Z,25
2016-02-27T11:00:21.183Z,25
2016-02-27T11:01:21.218Z,25
2016-02-27T11:02:21.142Z,25
2016-02-27T11:03:21.129Z,25
2016-02-27T11:04:21.085Z,25
2016-02-27T11:05:21.103Z,25
2016-02-27T11:06:21.043Z,30
2016-02-27T11:07:21.062Z,30
2016-02-27T11:08:20.987Z,30
2016-02-27T11:09:20.989Z,30
2016-02-27T11:10:20.945Z,30
2016-02-27T11:11:20.775Z,30
2016-02-27T11:12:20.903Z,30
2016-02-27T11:13:20.890Z,30
2016-02-27T11:14:20.862Z,30
2016-02-27T11:15:20.833Z,30
2016-02-27T11:16:20.820Z,30
2016-02-27T11:17:20.792Z,30
2016-02-27T11:18:20.763Z,30
2016-02-27T11:19:20.719Z,30
2016-02-27T11:20:20.722Z,30
2016-02-27T11:21:20.662Z,30
2016-02-27T11:22:20.712Z,30
2016-02-27T11:23:20.652Z,30
2016-02-27T11:24:20.639Z,30
2016-02-27T11:25:20.580Z,30
2016-02-27T11:26:20.613Z,30
2016-02-27T11:27:20.522Z,30
2016-02-27T11:28:20.540Z,30
2016-02-27T11:29:20.762Z,35
2016-02-27T11:30:20.483Z,35
2016-02-27T11:31:20.424Z,35
2016-02-27T11:32:20.427Z,35
2016-02-27T11:33:20.396Z,35
2016-02-27T11:34:20.493Z,35
2016-02-27T11:35:20.371Z,35
2016-02-27T11:36:20.343Z,35
2016-02-27T11:37:20.299Z,35
2016-02-27T11:38:20.302Z,35
2016-02-27T11:39:20.242Z,35
2016-02-27T11:40:20.245Z,35
2016-02-27T11:41:20.200Z,35
2016-02-27T11:42:20.203Z,35
2016-02-27T11:43:20.174Z,35
2016-02-27T11:44:20.176Z,35
2016-02-27T11:45:20.368Z,35
2016-02-27T11:46:20.104Z,35
2016-02-27T11:47:20.045Z,35
2016-02-27T11:48:20.078Z,35
2016-02-27T11:49:20.050Z,35
2016-02-27T11:50:20.021Z,35
2016-02-27T11:51:20.055Z,40
2016-02-27T11:52:19.933Z,40
2016-02-27T11:53:19.936Z,40
2016-02-27T11:54:19.876Z,40
2016-02-27T11:55:19.894Z,40
2016-02-27T11:56:19.834Z,40
2016-02-27T11:57:19.821Z,40
2016-02-27T11:58:19.793Z,45
2016-02-27T11:59:19.764Z,45
2016-02-27T12:00:19.766Z,45
2016-02-27T12:01:19.723Z,45
2016-02-27T12:02:18.991Z,45
2016-02-27T12:03:19.697Z,45
2016-02-27T12:04:19.699Z,45
2016-02-27T12:05:19.640Z,45
2016-02-27T12:06:19.611Z,50
2016-02-27T12:07:19.567Z,50
2016-02-27T12:08:19.570Z,50
2016-02-27T12:09:19.588Z,50
2016-02-27T12:10:19.529Z,50
2016-02-27T12:11:19.515Z,50
2016-02-27T12:12:19.471Z,50
2016-02-27T12:13:19.458Z,50
2016-02-27T12:14:19.414Z,50
2016-02-27T12:15:19.401Z,50
2016-02-27T12:16:19.387Z,55
2016-02-27T12:17:19.345Z,50
2016-02-27T12:18:19.347Z,55
2016-02-27T12:19:19.334Z,65
2016-02-27T12:20:19.320Z,60
2016-02-27T12:21:19.292Z,50
2016-02-27T12:22:19.233Z,50
2016-02-27T12:23:19.251Z,55
2016-02-27T12:24:19.222Z,60
2016-02-27T12:25:19.209Z,60
2016-02-27T12:26:19.134Z,60
2016-02-27T12:27:19.152Z,60
2016-02-27T12:28:19.092Z,60
2016-02-27T12:29:19.095Z,60
2016-02-27T12:30:19.050Z,60
2016-02-27T12:31:19.194Z,55
2016-02-27T12:32:18.994Z,55
2016-02-27T12:33:19.013Z,55
2016-02-27T12:34:18.999Z,55
2016-02-27T12:35:18.924Z,55
2016-02-27T12:36:18.927Z,30
2016-02-27T12:37:18.898Z,55
2016-02-27T12:38:18.869Z,55
2016-02-27T12:39:18.904Z,55
2016-02-27T12:40:18.812Z,55
2016-02-27T12:41:18.830Z,55
2016-02-27T12:42:18.990Z,60
2016-02-27T12:43:18.773Z,55
2016-02-27T12:44:19.104Z,60
2016-02-27T12:45:18.795Z,60
2016-02-27T12:46:18.687Z,55
2016-02-27T12:47:18.753Z,60
2016-02-27T12:48:18.662Z,60
2016-02-27T12:49:18.633Z,60
2016-02-27T12:50:18.620Z,60
2016-02-27T12:51:18.592Z,60
2016-02-27T12:52:18.548Z,60
2016-02-27T12:53:18.550Z,60
2016-02-27T12:54:18.506Z,60
2016-02-27T12:55:18.508Z,60
2016-02-27T12:56:18.464Z,60
2016-02-27T12:57:18.467Z,60
2016-02-27T12:58:18.423Z,60
2016-02-27T12:59:18.394Z,65
2016-02-27T13:00:18.397Z,65
2016-02-27T13:01:18.338Z,60
2016-02-27T13:02:18.386Z,65
2016-02-27T13:03:18.577Z,65
2016-02-27T13:04:18.360Z,60
2016-02-27T13:05:18.302Z,65
2016-02-27T13:06:18.241Z,60
2016-02-27T13:07:18.229Z,60
2016-02-27T13:08:18.200Z,60
2016-02-27T13:09:18.171Z,60
2016-02-27T13:10:18.158Z,60
2016-02-27T13:11:18.145Z,60
2016-02-27T13:12:18.117Z,65
2016-02-27T13:13:18.088Z,65
2016-02-27T13:14:18.091Z,65
2016-02-27T13:15:18.047Z,65
2016-02-27T13:16:18.034Z,65
2016-02-27T13:17:17.864Z,65
2016-02-27T13:18:17.992Z,60
2016-02-27T13:19:17.995Z,65
2016-02-27T13:20:17.967Z,60
2016-02-27T13:21:17.923Z,60
2016-02-27T13:22:17.894Z,60
2016-02-27T13:23:18.131Z,65
2016-02-27T13:24:17.837Z,60
2016-02-27T13:25:17.808Z,60
2016-02-27T13:26:17.811Z,60
2016-02-27T13:27:17.798Z,60
2016-02-27T13:28:17.911Z,60
2016-02-27T13:29:17.772Z,60
2016-02-27T13:30:17.759Z,60
2016-02-27T13:31:17.699Z,60
2016-02-27T13:32:17.702Z,60
2016-02-27T13:33:17.641Z,60
2016-02-27T13:34:17.660Z,60
2016-02-27T13:35:17.614Z,60
2016-02-27T13:36:17.587Z,60
2016-02-27T13:37:17.529Z,60
2016-02-27T13:38:17.502Z,60
2016-02-27T13:39:17.694Z,60
2016-02-27T13:40:17.466Z,60
2016-02-27T13:41:17.416Z,60
2016-02-27T13:42:17.446Z,60
2016-02-27T13:43:17.366Z,60
2016-02-27T13:44:17.425Z,60
2016-02-27T13:45:17.298Z,60
2016-02-27T13:46:17.299Z,60
2016-02-27T13:47:17.239Z,60
2016-02-27T13:48:17.207Z,60
2016-02-27T13:49:17.271Z,60
2016-02-27T13:50:17.178Z,60
2016-02-27T13:51:17.211Z,60
2016-02-27T13:52:17.134Z,55
2016-02-27T13:53:17.121Z,55
2016-02-27T13:54:17.107Z,55
2016-02-27T13:55:17.079Z,55
2016-02-27T13:56:17.049Z,55
2016-02-27T13:57:17.021Z,55
2016-02-27T13:58:17.024Z,55
2016-02-27T13:59:16.979Z,55
2016-02-27T14:00:16.967Z,55
2016-02-27T14:01:16.781Z,55
2016-02-27T14:02:16.926Z,55
2016-02-27T14:03:17.022Z,55
2016-02-27T14:04:16.993Z,55
2016-02-27T14:05:16.855Z,55
2016-02-27T14:06:16.842Z,50
2016-02-27T14:07:16.829Z,50
2016-02-27T14:08:16.800Z,50
2016-02-27T14:09:16.788Z,50
2016-02-27T14:10:16.805Z,50
2016-02-27T14:11:16.731Z,50
2016-02-27T14:12:16.983Z,50
2016-02-27T14:13:16.689Z,50
2016-02-27T14:14:16.660Z,50
2016-02-27T14:15:16.679Z,50
2016-02-27T14:16:16.682Z,50
2016-02-27T14:17:16.638Z,50
2016-02-27T14:18:16.577Z,50
2016-02-27T14:19:16.627Z,50
2016-02-27T14:20:16.801Z,50
2016-02-27T14:21:16.507Z,50
2016-02-27T14:22:16.510Z,50
2016-02-27T14:23:16.496Z,45
2016-02-27T14:24:16.453Z,45
2016-02-27T14:25:16.627Z,45
2016-02-27T14:26:16.426Z,45
2016-02-27T14:27:16.414Z,45
2016-02-27T14:28:16.480Z,45
2016-02-27T14:29:16.094Z,45
2016-02-27T14:30:16.643Z,45
2016-02-27T14:31:17.557Z,45
2016-02-27T14:32:16.277Z,45